createdAt,value
2017-06-15T00:00:19.695Z,0
2017-06-15T00:01:00.157Z,0
2017-06-15T00:01:40.613Z,0
2017-06-15T00:02:21.067Z,0
2017-06-15T00:03:01.528Z,0
2017-06-15T00:03:41.985Z,0
2017-06-15T00:04:22.442Z,0
2017-06-15T00:05:02.898Z,0
2017-06-15T00:05:43.357Z,0
2017-06-15T00:06:23.816Z,0
2017-06-15T00:07:04.274Z,0
2017-06-15T00:07:44.745Z,0
2017-06-15T00:08:25.199Z,0
2017-06-15T00:09:05.645Z,0
2017-06-15T00:09:46.112Z,0
2017-06-15T00:10:26.570Z,0
2017-06-15T00:11:07.027Z,0
2017-06-15T00:11:47.481Z,0
2017-06-15T00:12:27.939Z,0
2017-06-15T00:13:08.402Z,0
2017-06-15T00:13:48.861Z,0
2017-06-15T00:14:29.319Z,0
2017-06-15T00:15:09.778Z,0
2017-06-15T00:15:50.231Z,0
2017-06-15T00:16:30.685Z,0
2017-06-15T00:17:11.150Z,0
2017-06-15T00:17:51.606Z,0
2017-06-15T00:18:32.061Z,0
2017-06-15T00:19:12.523Z,0
2017-06-15T00:19:52.985Z,0
2017-06-15T00:20:33.434Z,0
2017-06-15T00:21:13.893Z,0
2017-06-15T00:21:54.349Z,0
2017-06-15T00:22:34.811Z,0
2017-06-15T00:23:15.261Z,0
2017-06-15T00:23:55.719Z,0
2017-06-15T00:24:36.178Z,0
2017-06-15T00:25:16.629Z,0
2017-06-15T00:25:57.086Z,0
2017-06-15T00:26:37.540Z,0
2017-06-15T00:27:17.996Z,0
2017-06-15T00:27:58.459Z,0
2017-06-15T00:28:38.908Z,0
2017-06-15T00:29:19.375Z,0
2017-06-15T00:29:59.833Z,0
2017-06-15T00:30:40.285Z,0
2017-06-15T00:31:20.746Z,0
2017-06-15T00:32:01.206Z,0
2017-06-15T00:32:41.658Z,0
2017-06-15T00:33:22.116Z,0
2017-06-15T00:34:02.573Z,0
2017-06-15T00:34:43.032Z,0
2017-06-15T00:35:23.494Z,0
2017-06-15T00:36:03.953Z,0
2017-06-15T00:36:44.410Z,0
2017-06-15T00:37:24.873Z,0
2017-06-15T00:38:05.334Z,0
2017-06-15T00:38:45.795Z,0
2017-06-15T00:39:26.255Z,0
2017-06-15T00:40:06.717Z,0
2017-06-15T00:40:47.175Z,0
2017-06-15T00:41:27.633Z,0
2017-06-15T00:42:08.090Z,0
2017-06-15T00:42:48.552Z,0
2017-06-15T00:43:29.023Z,0
2017-06-15T00:44:09.464Z,0
2017-06-15T00:46:07.418Z,0
2017-06-15T00:46:47.872Z,0
2017-06-15T00:47:28.340Z,0
2017-06-15T00:48:08.782Z,0
2017-06-15T00:48:49.244Z,0
2017-06-15T00:49:29.694Z,0
2017-06-15T00:50:10.149Z,0
2017-06-15T00:50:50.607Z,0
2017-06-15T00:51:31.065Z,0
2017-06-15T00:52:11.517Z,0
2017-06-15T00:52:51.986Z,0
2017-06-15T00:53:32.440Z,0
2017-06-15T00:54:12.897Z,0
2017-06-15T00:54:53.355Z,0
2017-06-15T00:55:33.802Z,0
2017-06-15T00:56:14.259Z,0
2017-06-15T00:56:54.720Z,0
2017-06-15T00:57:35.177Z,0
2017-06-15T00:58:15.671Z,0
2017-06-15T00:58:56.126Z,0
2017-06-15T00:59:36.578Z,0
2017-06-15T01:00:17.034Z,0
2017-06-15T01:00:57.484Z,0
2017-06-15T01:01:37.944Z,0
2017-06-15T01:02:18.403Z,0
2017-06-15T01:02:58.855Z,0
2017-06-15T01:03:39.302Z,0
2017-06-15T01:04:19.761Z,0
2017-06-15T01:05:00.216Z,0
2017-06-15T01:05:40.680Z,0
2017-06-15T01:06:21.137Z,0
2017-06-15T01:07:01.592Z,0
2017-06-15T01:07:42.048Z,0
2017-06-15T01:08:22.552Z,0
2017-06-15T01:09:03.006Z,0
2017-06-15T01:09:43.470Z,0
2017-06-15T01:10:23.928Z,0
2017-06-15T01:11:04.377Z,0
2017-06-15T01:11:44.825Z,0
2017-06-15T01:12:25.280Z,0
2017-06-15T01:13:05.740Z,0
2017-06-15T01:13:46.198Z,0
2017-06-15T01:14:26.658Z,0
2017-06-15T01:15:07.104Z,0
2017-06-15T01:15:47.561Z,0
2017-06-15T01:16:28.028Z,0
2017-06-15T01:17:08.478Z,0
2017-06-15T01:17:48.932Z,0
2017-06-15T01:18:29.387Z,0
2017-06-15T01:19:09.845Z,0
2017-06-15T01:19:50.301Z,0
2017-06-15T01:20:30.758Z,0
2017-06-15T01:21:11.218Z,0
2017-06-15T01:21:51.678Z,0
2017-06-15T01:22:32.132Z,0
2017-06-15T01:23:12.587Z,0
2017-06-15T01:23:53.046Z,0
2017-06-15T01:24:33.501Z,0
2017-06-15T01:25:13.960Z,0
2017-06-15T01:25:54.419Z,0
2017-06-15T01:26:34.885Z,0
2017-06-15T01:27:15.343Z,0
2017-06-15T01:27:55.796Z,0
2017-06-15T01:28:36.287Z,0
2017-06-15T01:29:16.747Z,0
2017-06-15T01:29:57.199Z,0
2017-06-15T01:30:37.657Z,0
2017-06-15T01:31:18.121Z,0
2017-06-15T01:31:58.573Z,0
2017-06-15T01:32:39.028Z,0
2017-06-15T01:33:19.485Z,0
2017-06-15T01:33:59.953Z,0
2017-06-15T01:34:40.411Z,0
2017-06-15T01:35:20.868Z,0
2017-06-15T01:36:01.336Z,0
2017-06-15T01:36:41.792Z,0
2017-06-15T01:37:22.254Z,0
2017-06-15T01:38:02.712Z,0
2017-06-15T01:38:43.233Z,0
2017-06-15T01:39:23.689Z,0
2017-06-15T01:40:04.151Z,0
2017-06-15T01:40:44.603Z,0
2017-06-15T01:41:25.060Z,0
2017-06-15T01:42:05.520Z,0
2017-06-15T01:42:45.978Z,0
2017-06-15T01:43:26.432Z,0
2017-06-15T01:44:06.895Z,0
2017-06-15T01:44:47.345Z,0
2017-06-15T01:45:27.807Z,0
2017-06-15T01:46:08.265Z,0
2017-06-15T01:46:48.748Z,0
2017-06-15T01:47:29.200Z,0
2017-06-15T01:48:09.649Z,0
2017-06-15T01:48:50.111Z,0
2017-06-15T01:49:30.568Z,0
2017-06-15T01:50:11.026Z,0
2017-06-15T01:50:51.485Z,0
2017-06-15T01:51:31.941Z,0
2017-06-15T01:52:12.393Z,0
2017-06-15T01:52:52.847Z,0
2017-06-15T01:53:33.295Z,0
2017-06-15T01:54:13.753Z,0
2017-06-15T01:54:54.217Z,0
2017-06-15T01:55:34.676Z,0
2017-06-15T01:56:15.136Z,0
2017-06-15T01:56:55.592Z,0
2017-06-15T01:57:36.050Z,0
2017-06-15T01:58:16.511Z,0
2017-06-15T01:58:56.963Z,0
2017-06-15T01:59:37.452Z,0
2017-06-15T02:00:17.876Z,0
2017-06-15T02:00:58.335Z,0
2017-06-15T02:01:38.794Z,0
2017-06-15T02:02:19.249Z,0
2017-06-15T02:02:59.698Z,0
2017-06-15T02:03:40.155Z,0
2017-06-15T02:04:20.610Z,0
2017-06-15T02:05:01.061Z,0
2017-06-15T02:05:41.522Z,0
2017-06-15T02:06:21.975Z,0
2017-06-15T02:07:02.433Z,0
2017-06-15T02:07:42.898Z,0
2017-06-15T02:08:23.356Z,0
2017-06-15T02:09:03.816Z,0
2017-06-15T02:09:44.276Z,0
2017-06-15T02:10:24.725Z,0
2017-06-15T02:11:05.179Z,0
2017-06-15T02:11:45.639Z,0
2017-06-15T02:12:26.101Z,0
2017-06-15T02:13:06.558Z,0
2017-06-15T02:13:47.016Z,0
2017-06-15T02:14:27.482Z,0
2017-06-15T02:15:07.940Z,0
2017-06-15T02:15:48.395Z,0
2017-06-15T02:16:28.850Z,0
2017-06-15T02:17:09.307Z,0
2017-06-15T02:17:49.764Z,0
2017-06-15T02:18:30.238Z,0
2017-06-15T02:19:10.691Z,0
2017-06-15T02:19:51.146Z,0
2017-06-15T02:20:31.608Z,0
2017-06-15T02:21:12.064Z,0
2017-06-15T02:21:52.527Z,0
2017-06-15T02:22:32.983Z,0
2017-06-15T02:23:13.437Z,0
2017-06-15T02:23:53.896Z,0
2017-06-15T02:24:34.347Z,0
2017-06-15T02:25:14.807Z,0
2017-06-15T02:25:55.266Z,0
2017-06-15T02:26:35.724Z,0
2017-06-15T02:27:16.183Z,0
2017-06-15T02:27:56.642Z,0
2017-06-15T02:28:37.096Z,0
2017-06-15T02:29:17.550Z,0
2017-06-15T02:29:58.008Z,0
2017-06-15T02:30:38.463Z,0
2017-06-15T02:31:18.926Z,0
2017-06-15T02:31:59.380Z,0
2017-06-15T02:32:39.835Z,0
2017-06-15T02:33:20.307Z,0
2017-06-15T02:34:00.761Z,0
2017-06-15T02:34:41.222Z,0
2017-06-15T02:35:21.680Z,0
2017-06-15T02:36:02.134Z,0
2017-06-15T02:36:42.597Z,0
2017-06-15T02:37:23.049Z,0
2017-06-15T02:38:03.505Z,0
2017-06-15T02:38:43.962Z,0
2017-06-15T02:39:24.418Z,0
2017-06-15T02:40:04.877Z,0
2017-06-15T02:40:45.324Z,0
2017-06-15T02:41:25.781Z,0
2017-06-15T02:42:06.240Z,0
2017-06-15T02:42:46.701Z,0
2017-06-15T02:43:27.161Z,0
2017-06-15T02:44:07.614Z,0
2017-06-15T02:44:48.070Z,0
2017-06-15T02:45:28.530Z,0
2017-06-15T02:46:08.977Z,0
2017-06-15T02:46:49.431Z,0
2017-06-15T02:47:29.887Z,0
2017-06-15T02:48:10.347Z,0
2017-06-15T02:48:50.809Z,0
2017-06-15T02:49:31.268Z,0
2017-06-15T02:50:11.728Z,0
2017-06-15T02:50:52.180Z,0
2017-06-15T02:51:32.637Z,0
2017-06-15T02:52:13.088Z,0
2017-06-15T02:52:53.546Z,0
2017-06-15T02:53:34.009Z,0
2017-06-15T02:54:14.466Z,0
2017-06-15T02:54:54.922Z,0
2017-06-15T02:55:35.377Z,0
2017-06-15T02:56:15.837Z,0
2017-06-15T02:56:56.291Z,4
2017-06-15T02:57:36.744Z,4
2017-06-15T02:58:17.204Z,4
2017-06-15T02:58:57.701Z,4
2017-06-15T02:59:38.158Z,4
2017-06-15T03:00:18.615Z,4
2017-06-15T03:00:59.067Z,0
2017-06-15T03:01:39.525Z,0
2017-06-15T03:02:19.978Z,4
2017-06-15T03:03:00.437Z,4
2017-06-15T03:03:40.894Z,4
2017-06-15T03:04:21.353Z,4
2017-06-15T03:05:01.811Z,8
2017-06-15T03:05:42.260Z,4
2017-06-15T03:06:22.718Z,4
2017-06-15T03:07:03.184Z,4
2017-06-15T03:07:43.632Z,4
2017-06-15T03:08:24.085Z,8
2017-06-15T03:09:04.541Z,8
2017-06-15T03:09:44.991Z,4
2017-06-15T03:10:25.451Z,8
2017-06-15T03:11:05.902Z,8
2017-06-15T03:11:46.377Z,8
2017-06-15T03:12:26.838Z,12
2017-06-15T03:13:07.293Z,8
2017-06-15T03:13:47.749Z,8
2017-06-15T03:14:28.217Z,12
2017-06-15T03:15:08.660Z,12
2017-06-15T03:15:49.115Z,8
2017-06-15T03:16:29.566Z,12
2017-06-15T03:17:10.016Z,12
2017-06-15T03:17:50.471Z,16
2017-06-15T03:18:30.918Z,12
2017-06-15T03:19:11.386Z,16
2017-06-15T03:19:51.835Z,16
2017-06-15T03:20:32.291Z,16
2017-06-15T03:21:12.743Z,16
2017-06-15T03:21:53.205Z,16
2017-06-15T03:22:33.664Z,20
2017-06-15T03:23:14.120Z,20
2017-06-15T03:23:54.576Z,20
2017-06-15T03:24:35.043Z,20
2017-06-15T03:25:15.497Z,20
2017-06-15T03:25:55.946Z,24
2017-06-15T03:26:36.401Z,24
2017-06-15T03:27:16.857Z,24
2017-06-15T03:27:57.312Z,24
2017-06-15T03:28:37.768Z,28
2017-06-15T03:29:18.250Z,24
2017-06-15T03:29:58.710Z,28
2017-06-15T03:30:39.172Z,32
2017-06-15T03:31:19.628Z,28
2017-06-15T03:32:00.080Z,32
2017-06-15T03:32:40.539Z,32
2017-06-15T03:33:20.994Z,32
2017-06-15T03:34:01.451Z,36
2017-06-15T03:34:41.910Z,32
2017-06-15T03:35:22.370Z,36
2017-06-15T03:36:02.829Z,36
2017-06-15T03:36:43.281Z,40
2017-06-15T03:37:23.754Z,40
2017-06-15T03:38:04.211Z,44
2017-06-15T03:38:44.673Z,44
2017-06-15T03:39:25.129Z,44
2017-06-15T03:40:05.585Z,44
2017-06-15T03:40:46.044Z,48
2017-06-15T03:41:26.501Z,48
2017-06-15T03:42:06.957Z,48
2017-06-15T03:42:47.415Z,52
2017-06-15T03:43:27.873Z,52
2017-06-15T03:44:08.332Z,56
2017-06-15T03:44:48.791Z,56
2017-06-15T03:45:29.260Z,60
2017-06-15T03:46:09.734Z,60
2017-06-15T03:46:50.206Z,60
2017-06-15T03:47:30.664Z,60
2017-06-15T03:48:11.122Z,64
2017-06-15T03:48:51.586Z,64
2017-06-15T03:49:32.044Z,68
2017-06-15T03:50:12.506Z,68
2017-06-15T03:50:52.963Z,68
2017-06-15T03:51:33.418Z,68
2017-06-15T03:52:13.879Z,72
2017-06-15T03:52:54.335Z,72
2017-06-15T03:53:34.785Z,72
2017-06-15T03:55:32.589Z,80
2017-06-15T03:56:13.045Z,80
2017-06-15T03:56:53.500Z,80
2017-06-15T03:57:33.971Z,84
2017-06-15T03:58:14.431Z,84
2017-06-15T03:58:54.889Z,88
2017-06-15T03:59:35.347Z,88
2017-06-15T04:00:15.804Z,92
2017-06-15T04:00:56.259Z,88
2017-06-15T04:01:36.716Z,92
2017-06-15T04:02:17.175Z,92
2017-06-15T04:02:57.631Z,96
2017-06-15T04:03:38.091Z,96
2017-06-15T04:04:18.546Z,100
2017-06-15T04:04:59.000Z,100
2017-06-15T04:05:39.457Z,100
2017-06-15T04:06:19.914Z,100
2017-06-15T04:07:00.374Z,104
2017-06-15T04:07:40.826Z,104
2017-06-15T04:08:21.284Z,108
2017-06-15T04:09:01.740Z,108
2017-06-15T04:09:42.194Z,112
2017-06-15T04:10:22.648Z,112
2017-06-15T04:11:03.102Z,112
2017-06-15T04:11:43.564Z,116
2017-06-15T04:12:24.036Z,116
2017-06-15T04:13:04.477Z,120
2017-06-15T04:13:44.928Z,120
2017-06-15T04:14:25.387Z,124
2017-06-15T04:15:05.841Z,124
2017-06-15T04:15:46.306Z,128
2017-06-15T04:16:26.774Z,132
2017-06-15T04:17:07.235Z,132
2017-06-15T04:17:47.691Z,132
2017-06-15T04:18:28.161Z,136
2017-06-15T04:19:08.604Z,140
2017-06-15T04:19:49.052Z,140
2017-06-15T04:20:29.515Z,144
2017-06-15T04:21:09.979Z,144
2017-06-15T04:21:50.434Z,148
2017-06-15T04:22:30.891Z,152
2017-06-15T04:23:11.350Z,152
2017-06-15T04:23:51.802Z,160
2017-06-15T04:24:32.254Z,160
2017-06-15T04:25:12.722Z,164
2017-06-15T04:25:53.177Z,168
2017-06-15T04:26:33.634Z,172
2017-06-15T04:27:14.082Z,176
2017-06-15T04:27:54.563Z,180
2017-06-15T04:28:35.002Z,184
2017-06-15T04:29:15.456Z,188
2017-06-15T04:29:55.913Z,188
2017-06-15T04:30:36.354Z,192
2017-06-15T04:31:16.810Z,200
2017-06-15T04:31:57.261Z,200
2017-06-15T04:32:37.720Z,204
2017-06-15T04:33:18.177Z,204
2017-06-15T04:33:58.650Z,208
2017-06-15T04:34:39.105Z,212
2017-06-15T04:35:19.579Z,212
2017-06-15T04:36:00.041Z,216
2017-06-15T04:36:40.494Z,220
2017-06-15T04:37:20.948Z,220
2017-06-15T04:38:01.408Z,228
2017-06-15T04:38:41.868Z,228
2017-06-15T04:39:22.325Z,232
2017-06-15T04:40:02.792Z,232
2017-06-15T04:40:43.241Z,236
2017-06-15T04:41:23.719Z,244
2017-06-15T04:42:04.175Z,244
2017-06-15T04:42:44.633Z,248
2017-06-15T04:43:25.093Z,248
2017-06-15T04:44:05.544Z,256
2017-06-15T04:44:46.004Z,256
2017-06-15T04:45:26.470Z,260
2017-06-15T04:46:06.921Z,264
2017-06-15T04:46:47.380Z,268
2017-06-15T04:47:27.841Z,268
2017-06-15T04:48:08.295Z,276
2017-06-15T04:48:48.762Z,276
2017-06-15T04:49:29.219Z,280
2017-06-15T04:50:09.699Z,280
2017-06-15T04:50:50.131Z,288
2017-06-15T04:51:30.592Z,288
2017-06-15T04:52:11.048Z,292
2017-06-15T04:52:51.511Z,292
2017-06-15T04:53:31.965Z,300
2017-06-15T04:54:12.419Z,300
2017-06-15T04:54:52.873Z,300
2017-06-15T04:55:33.331Z,304
2017-06-15T04:56:13.786Z,308
2017-06-15T04:56:54.243Z,312
2017-06-15T04:57:34.700Z,312
2017-06-15T04:58:15.156Z,320
2017-06-15T04:58:55.612Z,324
2017-06-15T04:59:36.067Z,324
2017-06-15T05:00:16.528Z,332
2017-06-15T05:00:56.993Z,332
2017-06-15T05:01:37.442Z,336
2017-06-15T05:02:17.896Z,340
2017-06-15T05:02:58.348Z,344
2017-06-15T05:03:38.792Z,348
2017-06-15T05:04:19.247Z,352
2017-06-15T05:04:59.701Z,356
2017-06-15T05:05:40.155Z,356
2017-06-15T05:06:20.613Z,364
2017-06-15T05:07:01.075Z,364
2017-06-15T05:07:41.545Z,368
2017-06-15T05:08:22.005Z,368
2017-06-15T05:09:02.465Z,376
2017-06-15T05:09:42.921Z,376
2017-06-15T05:10:23.382Z,384
2017-06-15T05:11:03.836Z,384
2017-06-15T05:11:44.298Z,388
2017-06-15T05:12:24.752Z,392
2017-06-15T05:13:05.213Z,392
2017-06-15T05:13:45.675Z,396
2017-06-15T05:14:26.136Z,400
2017-06-15T05:15:06.591Z,404
2017-06-15T05:15:47.050Z,408
2017-06-15T05:16:27.504Z,408
2017-06-15T05:17:07.958Z,412
2017-06-15T05:17:48.420Z,416
2017-06-15T05:18:28.879Z,420
2017-06-15T05:19:09.329Z,420
2017-06-15T05:19:49.786Z,424
2017-06-15T05:20:30.245Z,428
2017-06-15T05:21:10.703Z,432
2017-06-15T05:21:51.154Z,436
2017-06-15T05:22:31.608Z,440
2017-06-15T05:23:12.056Z,440
2017-06-15T05:23:52.513Z,444
2017-06-15T05:24:32.981Z,448
2017-06-15T05:25:13.434Z,448
2017-06-15T05:25:53.895Z,452
2017-06-15T05:26:34.355Z,456
2017-06-15T05:27:14.899Z,456
2017-06-15T05:27:55.361Z,460
2017-06-15T05:28:35.816Z,464
2017-06-15T05:29:16.274Z,464
2017-06-15T05:29:56.733Z,468
2017-06-15T05:30:37.200Z,468
2017-06-15T05:31:17.655Z,472
2017-06-15T05:31:58.108Z,476
2017-06-15T05:32:38.571Z,480
2017-06-15T05:33:19.032Z,484
2017-06-15T05:33:59.491Z,484
2017-06-15T05:34:39.939Z,488
2017-06-15T05:35:20.398Z,492
2017-06-15T05:36:00.852Z,492
2017-06-15T05:36:41.318Z,496
2017-06-15T05:37:21.773Z,500
2017-06-15T05:38:02.229Z,500
2017-06-15T05:38:42.686Z,496
2017-06-15T05:39:23.142Z,500
2017-06-15T05:40:03.596Z,504
2017-06-15T05:40:44.052Z,508
2017-06-15T05:41:24.507Z,512
2017-06-15T05:42:04.962Z,516
2017-06-15T05:42:45.431Z,520
2017-06-15T05:43:25.898Z,520
2017-06-15T05:44:06.358Z,520
2017-06-15T05:44:46.804Z,524
2017-06-15T05:45:27.261Z,528
2017-06-15T05:46:07.714Z,532
2017-06-15T05:46:48.171Z,532
2017-06-15T05:47:28.631Z,536
2017-06-15T05:48:09.089Z,540
2017-06-15T05:48:49.548Z,544
2017-06-15T05:49:29.998Z,548
2017-06-15T05:50:10.455Z,548
2017-06-15T05:50:50.911Z,556
2017-06-15T05:51:31.367Z,560
2017-06-15T05:52:11.830Z,564
2017-06-15T05:52:52.284Z,568
2017-06-15T05:53:32.740Z,572
2017-06-15T05:54:13.197Z,576
2017-06-15T05:54:53.651Z,584
2017-06-15T05:55:34.111Z,588
2017-06-15T05:56:14.571Z,592
2017-06-15T05:56:55.024Z,600
2017-06-15T05:57:35.479Z,604
2017-06-15T05:58:15.929Z,608
2017-06-15T05:58:56.387Z,608
2017-06-15T05:59:36.847Z,616
2017-06-15T06:00:17.304Z,620
2017-06-15T06:00:57.765Z,628
2017-06-15T06:01:38.220Z,632
2017-06-15T06:02:18.679Z,632
2017-06-15T06:02:59.137Z,644
2017-06-15T06:03:39.595Z,640
2017-06-15T06:04:20.052Z,644
2017-06-15T06:05:00.514Z,1356
2017-06-15T06:05:40.972Z,1364
2017-06-15T06:06:21.430Z,576
2017-06-15T06:07:01.888Z,748
2017-06-15T06:07:42.376Z,752
2017-06-15T06:08:22.804Z,752
2017-06-15T06:09:03.262Z,760
2017-06-15T06:09:43.722Z,760
2017-06-15T06:10:24.189Z,764
2017-06-15T06:11:04.639Z,768
2017-06-15T06:11:45.092Z,776
2017-06-15T06:12:25.540Z,780
2017-06-15T06:13:05.998Z,784
2017-06-15T06:13:46.454Z,788
2017-06-15T06:14:26.918Z,792
2017-06-15T06:15:07.379Z,796
2017-06-15T06:15:47.842Z,800
2017-06-15T06:16:28.302Z,804
2017-06-15T06:17:08.758Z,820
2017-06-15T06:17:49.219Z,812
2017-06-15T06:18:29.671Z,820
2017-06-15T06:19:10.132Z,824
2017-06-15T06:19:50.591Z,828
2017-06-15T06:20:31.053Z,832
2017-06-15T06:21:11.513Z,840
2017-06-15T06:21:51.964Z,840
2017-06-15T06:22:32.429Z,844
2017-06-15T06:23:12.976Z,848
2017-06-15T06:23:53.325Z,852
2017-06-15T06:24:33.781Z,856
2017-06-15T06:25:14.236Z,860
2017-06-15T06:25:54.689Z,864
2017-06-15T06:26:35.150Z,868
2017-06-15T06:27:15.621Z,872
2017-06-15T06:27:56.090Z,876
2017-06-15T06:28:36.565Z,880
2017-06-15T06:29:17.022Z,884
2017-06-15T06:29:57.470Z,888
2017-06-15T06:30:37.922Z,892
2017-06-15T06:31:18.385Z,896
2017-06-15T06:31:58.837Z,904
2017-06-15T06:32:39.302Z,904
2017-06-15T06:33:19.770Z,912
2017-06-15T06:34:00.219Z,916
2017-06-15T06:34:40.682Z,916
2017-06-15T06:35:21.148Z,924
2017-06-15T06:36:01.613Z,928
2017-06-15T06:36:42.069Z,932
2017-06-15T06:37:22.535Z,936
2017-06-15T06:38:03.000Z,940
2017-06-15T06:38:43.525Z,944
2017-06-15T06:39:23.983Z,948
2017-06-15T06:40:04.441Z,948
2017-06-15T06:40:44.892Z,952
2017-06-15T06:41:25.346Z,956
2017-06-15T06:42:05.803Z,960
2017-06-15T06:42:46.260Z,960
2017-06-15T06:43:26.715Z,964
2017-06-15T06:44:07.183Z,968
2017-06-15T06:44:47.648Z,972
2017-06-15T06:45:28.282Z,976
2017-06-15T06:46:08.767Z,976
2017-06-15T06:46:49.213Z,976
2017-06-15T06:47:29.669Z,984
2017-06-15T06:48:10.129Z,988
2017-06-15T06:48:50.587Z,988
2017-06-15T06:49:31.073Z,992
2017-06-15T06:50:11.525Z,992
2017-06-15T06:50:51.982Z,996
2017-06-15T06:51:32.444Z,996
2017-06-15T06:52:12.905Z,1004
2017-06-15T06:52:53.410Z,1004
2017-06-15T06:53:33.869Z,1008
2017-06-15T06:54:14.327Z,1012
2017-06-15T06:54:54.771Z,1016
2017-06-15T06:55:35.221Z,1020
2017-06-15T06:56:15.688Z,1024
2017-06-15T06:56:56.148Z,1028
2017-06-15T06:57:36.610Z,1032
2017-06-15T06:58:17.069Z,1032
2017-06-15T06:58:57.522Z,1036
2017-06-15T06:59:37.982Z,1028
2017-06-15T07:00:18.440Z,1048
2017-06-15T07:00:58.894Z,1052
2017-06-15T07:01:39.346Z,1060
2017-06-15T07:02:19.803Z,1060
2017-06-15T07:03:00.268Z,1064
2017-06-15T07:03:40.725Z,1068
2017-06-15T07:04:21.185Z,1072
2017-06-15T07:05:01.655Z,1076
2017-06-15T07:05:42.136Z,1084
2017-06-15T07:06:22.589Z,1084
2017-06-15T07:07:03.039Z,1088
2017-06-15T07:07:43.629Z,1092
2017-06-15T07:08:24.069Z,1096
2017-06-15T07:09:04.534Z,1104
2017-06-15T07:09:45.029Z,1108
2017-06-15T07:10:25.485Z,1112
2017-06-15T07:11:05.953Z,1120
2017-06-15T07:11:46.412Z,1124
2017-06-15T07:12:26.867Z,1128
2017-06-15T07:13:07.329Z,1136
2017-06-15T07:13:47.790Z,1140
2017-06-15T07:14:28.297Z,1148
2017-06-15T07:15:08.763Z,1152
2017-06-15T07:15:49.221Z,1160
2017-06-15T07:16:29.679Z,1164
2017-06-15T07:17:10.150Z,1168
2017-06-15T07:17:50.619Z,1180
2017-06-15T07:18:31.080Z,1188
2017-06-15T07:19:11.540Z,1192
2017-06-15T07:19:51.989Z,1200
2017-06-15T07:20:32.446Z,1208
2017-06-15T07:21:12.903Z,1220
2017-06-15T07:21:53.350Z,1224
2017-06-15T07:22:33.827Z,1236
2017-06-15T07:23:14.289Z,1240
2017-06-15T07:23:54.751Z,1248
2017-06-15T07:24:35.211Z,1260
2017-06-15T07:25:15.657Z,1264
2017-06-15T07:25:56.119Z,1276
2017-06-15T07:26:36.577Z,1284
2017-06-15T07:27:17.039Z,1292
2017-06-15T07:27:57.500Z,1304
2017-06-15T07:28:37.956Z,1308
2017-06-15T07:29:18.414Z,1316
2017-06-15T07:29:58.874Z,1324
2017-06-15T07:30:39.334Z,1332
2017-06-15T07:31:19.785Z,1344
2017-06-15T07:32:00.466Z,1348
2017-06-15T07:32:40.918Z,1356
2017-06-15T07:33:21.399Z,1368
2017-06-15T07:34:01.827Z,1376
2017-06-15T07:34:42.277Z,1380
2017-06-15T07:35:22.735Z,1392
2017-06-15T07:36:03.198Z,1396
2017-06-15T07:36:43.652Z,1408
2017-06-15T07:37:24.110Z,1420
2017-06-15T07:38:04.570Z,1428
2017-06-15T07:38:45.023Z,1432
2017-06-15T07:39:25.479Z,1440
2017-06-15T07:40:05.940Z,1452
2017-06-15T07:40:46.414Z,1460
2017-06-15T07:41:26.876Z,1468
2017-06-15T07:42:07.333Z,1476
2017-06-15T07:42:47.792Z,1484
2017-06-15T07:43:28.251Z,1496
2017-06-15T07:44:08.709Z,1504
2017-06-15T07:44:49.166Z,1512
2017-06-15T07:45:29.623Z,1524
2017-06-15T07:46:10.116Z,1532
2017-06-15T07:46:50.574Z,1536
2017-06-15T07:47:31.029Z,1544
2017-06-15T07:48:11.492Z,1552
2017-06-15T07:48:51.951Z,1560
2017-06-15T07:49:32.405Z,1568
2017-06-15T07:50:12.856Z,1580
2017-06-15T07:50:53.315Z,1584
2017-06-15T07:51:33.778Z,1592
2017-06-15T07:52:14.233Z,1604
2017-06-15T07:52:54.687Z,1612
2017-06-15T07:53:35.151Z,1620
2017-06-15T07:54:15.609Z,1624
2017-06-15T07:54:56.065Z,1632
2017-06-15T07:55:36.526Z,1640
2017-06-15T07:56:16.977Z,1648
2017-06-15T07:56:57.434Z,1660
2017-06-15T07:57:37.890Z,1664
2017-06-15T07:58:18.349Z,1672
2017-06-15T07:58:58.802Z,1680
2017-06-15T07:59:39.271Z,1692
2017-06-15T08:00:19.722Z,1696
2017-06-15T08:01:00.178Z,1708
2017-06-15T08:01:40.644Z,1712
2017-06-15T08:02:21.091Z,1720
2017-06-15T08:03:01.550Z,1728
2017-06-15T08:03:42.010Z,1736
2017-06-15T08:04:22.495Z,1748
2017-06-15T08:05:02.955Z,1752
2017-06-15T08:05:43.414Z,1764
2017-06-15T08:06:23.874Z,1768
2017-06-15T08:07:04.342Z,1776
2017-06-15T08:07:44.810Z,1780
2017-06-15T08:08:25.313Z,1788
2017-06-15T08:09:05.805Z,1796
2017-06-15T08:09:46.225Z,1804
2017-06-15T08:10:26.681Z,1808
2017-06-15T08:11:07.135Z,1816
2017-06-15T08:11:47.599Z,1832
2017-06-15T08:12:28.058Z,1836
2017-06-15T08:13:08.507Z,1844
2017-06-15T08:13:48.982Z,1852
2017-06-15T08:14:29.436Z,1860
2017-06-15T08:15:09.910Z,1864
2017-06-15T08:15:50.348Z,1876
2017-06-15T08:16:30.798Z,1884
2017-06-15T08:17:11.268Z,1888
2017-06-15T08:17:51.718Z,1900
2017-06-15T08:18:32.173Z,1908
2017-06-15T08:19:12.625Z,1916
2017-06-15T08:19:53.086Z,1920
2017-06-15T08:20:33.538Z,1924
2017-06-15T08:21:14.001Z,1936
2017-06-15T08:21:54.457Z,1944
2017-06-15T08:22:34.905Z,1952
2017-06-15T08:23:15.359Z,1956
2017-06-15T08:23:55.810Z,1964
2017-06-15T08:24:36.267Z,1972
2017-06-15T08:25:16.729Z,1980
2017-06-15T08:25:57.192Z,1988
2017-06-15T08:26:37.668Z,1996
2017-06-15T08:27:18.127Z,2004
2017-06-15T08:27:58.586Z,2012
2017-06-15T08:28:39.044Z,2016
2017-06-15T08:29:19.499Z,2024
2017-06-15T08:29:59.955Z,2024
2017-06-15T08:30:40.415Z,2032
2017-06-15T08:31:20.877Z,2036
2017-06-15T08:32:01.334Z,2044
2017-06-15T08:32:41.788Z,2052
2017-06-15T08:33:22.269Z,2056
2017-06-15T08:34:02.730Z,2064
2017-06-15T08:34:43.186Z,2068
2017-06-15T08:35:23.644Z,2072
2017-06-15T08:36:04.196Z,2080
2017-06-15T08:36:44.540Z,2084
2017-06-15T08:37:24.990Z,2092
2017-06-15T08:38:05.520Z,2100
2017-06-15T08:38:45.973Z,2108
2017-06-15T08:39:26.435Z,2112
2017-06-15T08:40:06.886Z,2116
2017-06-15T08:40:47.514Z,2120
2017-06-15T08:41:27.806Z,2128
2017-06-15T08:42:08.340Z,2132
2017-06-15T08:42:48.792Z,2136
2017-06-15T08:43:29.237Z,2140
2017-06-15T08:44:09.711Z,2148
2017-06-15T08:44:50.185Z,2156
2017-06-15T08:45:30.643Z,2164
2017-06-15T08:47:48.823Z,2184
2017-06-15T08:48:29.283Z,2188
2017-06-15T08:49:09.740Z,2192
2017-06-15T08:49:50.195Z,2200
2017-06-15T08:50:30.651Z,2208
2017-06-15T08:51:11.112Z,2216
2017-06-15T08:51:51.570Z,2220
2017-06-15T08:52:32.014Z,2224
2017-06-15T08:53:12.466Z,2228
2017-06-15T08:53:53.163Z,2236
2017-06-15T08:54:33.611Z,2240
2017-06-15T08:55:14.069Z,2248
2017-06-15T08:55:54.526Z,2248
2017-06-15T08:56:34.981Z,2256
2017-06-15T08:57:15.432Z,2256
2017-06-15T08:57:55.879Z,2264
2017-06-15T09:00:24.215Z,2280
2017-06-15T09:01:04.673Z,2284
2017-06-15T09:01:45.136Z,2284
2017-06-15T09:02:25.599Z,2292
2017-06-15T09:04:58.855Z,2308
2017-06-15T09:05:39.312Z,2316
2017-06-15T09:06:19.763Z,2316
2017-06-15T09:07:00.218Z,2320
2017-06-15T09:07:40.668Z,2324
2017-06-15T09:08:21.142Z,2332
2017-06-15T09:09:01.916Z,2336
2017-06-15T09:09:42.376Z,2340
2017-06-15T09:10:22.832Z,2344
2017-06-15T09:11:03.287Z,2348
2017-06-15T09:11:43.741Z,2352
2017-06-15T09:12:24.200Z,2356
2017-06-15T09:13:04.654Z,2360
2017-06-15T09:13:45.108Z,2360
2017-06-15T09:14:25.564Z,2364
2017-06-15T09:15:06.019Z,2368
2017-06-15T09:15:46.480Z,2372
2017-06-15T09:16:26.940Z,2372
2017-06-15T09:17:07.403Z,2376
2017-06-15T09:17:47.860Z,2376
2017-06-15T09:18:28.313Z,2380
2017-06-15T09:19:08.765Z,2384
2017-06-15T09:19:49.223Z,2384
2017-06-15T09:20:29.681Z,2388
2017-06-15T09:21:10.180Z,2396
2017-06-15T09:21:50.587Z,2392
2017-06-15T09:22:31.046Z,2396
2017-06-15T09:23:11.504Z,2396
2017-06-15T09:23:51.961Z,2404
2017-06-15T09:24:32.416Z,2396
2017-06-15T09:25:12.880Z,2396
2017-06-15T09:25:53.332Z,2400
2017-06-15T09:26:33.788Z,2404
2017-06-15T09:27:14.252Z,2404
2017-06-15T09:27:54.710Z,2416
2017-06-15T09:28:35.166Z,2420
2017-06-15T09:29:15.627Z,2432
2017-06-15T09:29:56.085Z,2416
2017-06-15T09:30:36.537Z,2280
2017-06-15T09:31:17.000Z,2376
2017-06-15T09:31:57.467Z,2344
2017-06-15T09:32:37.927Z,2440
2017-06-15T09:33:18.386Z,2460
2017-06-15T09:33:58.842Z,2512
2017-06-15T09:34:39.301Z,2444